Terminal Aerodrome Forecast
Issued by NWS

Home | Current Version | Previous Version | Text Only | Print | Product List | Glossary On
Versions: 1 2 3 4 5 6 7 8 9 10 11 12 13 14 15 16 17 18 19
208
FTUS46 KLOX 072338
TAFBUR
TAF
KBUR 072338Z 0800/0824 19007KT P6SM SCT120
     FM080200 VRB03KT P6SM BKN100
     FM082100 18007KT P6SM BKN050=

USA.gov is the U.S. government's official web portal to all federal, state and local government web resources and services.